sensor_id;sensor_type;location;lat;lon;timestamp;P1;durP1;ratioP1;P2;durP2;ratioP2
9801;SDS011;4940;50.900;4.672;2022-12-20T00:01:31;1.95;;;1.50;;
9801;SDS011;4940;50.900;4.672;2022-12-20T00:04:00;3.60;;;1.52;;
9801;SDS011;4940;50.900;4.672;2022-12-20T00:06:30;1.98;;;1.58;;
9801;SDS011;4940;50.900;4.672;2022-12-20T00:08:59;4.03;;;1.65;;
9801;SDS011;4940;50.900;4.672;2022-12-20T00:11:27;2.60;;;1.73;;
9801;SDS011;4940;50.900;4.672;2022-12-20T00:13:55;2.97;;;1.77;;
9801;SDS011;4940;50.900;4.672;2022-12-20T00:16:24;3.53;;;1.85;;
9801;SDS011;4940;50.900;4.672;2022-12-20T00:18:53;2.72;;;1.60;;
9801;SDS011;4940;50.900;4.672;2022-12-20T00:21:22;2.15;;;1.33;;
9801;SDS011;4940;50.900;4.672;2022-12-20T00:23:50;2.58;;;1.85;;
9801;SDS011;4940;50.900;4.672;2022-12-20T00:26:18;1.55;;;1.30;;
9801;SDS011;4940;50.900;4.672;2022-12-20T00:28:46;2.38;;;1.77;;
9801;SDS011;4940;50.900;4.672;2022-12-20T00:31:14;3.72;;;1.60;;
9801;SDS011;4940;50.900;4.672;2022-12-20T00:33:45;6.78;;;1.73;;
9801;SDS011;4940;50.900;4.672;2022-12-20T00:36:14;3.60;;;1.70;;
9801;SDS011;4940;50.900;4.672;2022-12-20T00:38:43;3.47;;;1.80;;
9801;SDS011;4940;50.900;4.672;2022-12-20T00:41:11;3.83;;;2.03;;
9801;SDS011;4940;50.900;4.672;2022-12-20T00:43:40;2.92;;;1.67;;
9801;SDS011;4940;50.900;4.672;2022-12-20T00:46:09;3.72;;;1.73;;
9801;SDS011;4940;50.900;4.672;2022-12-20T00:48:37;2.60;;;1.80;;
9801;SDS011;4940;50.900;4.672;2022-12-20T00:51:07;3.78;;;1.70;;
9801;SDS011;4940;50.900;4.672;2022-12-20T00:53:35;3.03;;;2.08;;
9801;SDS011;4940;50.900;4.672;2022-12-20T00:56:03;2.95;;;1.90;;
9801;SDS011;4940;50.900;4.672;2022-12-20T00:58:32;4.13;;;1.90;;
9801;SDS011;4940;50.900;4.672;2022-12-20T01:01:00;2.78;;;2.03;;
9801;SDS011;4940;50.900;4.672;2022-12-20T01:03:28;2.53;;;1.70;;
9801;SDS011;4940;50.900;4.672;2022-12-20T01:05:56;2.85;;;1.75;;
9801;SDS011;4940;50.900;4.672;2022-12-20T01:08:27;2.65;;;1.90;;
9801;SDS011;4940;50.900;4.672;2022-12-20T01:10:59;2.65;;;1.85;;
9801;SDS011;4940;50.900;4.672;2022-12-20T01:13:27;2.55;;;1.45;;
9801;SDS011;4940;50.900;4.672;2022-12-20T01:15:55;4.53;;;1.95;;
9801;SDS011;4940;50.900;4.672;2022-12-20T01:18:23;3.00;;;1.88;;
9801;SDS011;4940;50.900;4.672;2022-12-20T01:20:59;3.55;;;1.60;;
9801;SDS011;4940;50.900;4.672;2022-12-20T01:23:28;2.95;;;1.70;;
9801;SDS011;4940;50.900;4.672;2022-12-20T01:25:56;4.95;;;1.70;;
9801;SDS011;4940;50.900;4.672;2022-12-20T01:28:25;4.47;;;2.10;;
9801;SDS011;4940;50.900;4.672;2022-12-20T01:30:52;2.00;;;1.52;;
9801;SDS011;4940;50.900;4.672;2022-12-20T01:33:20;3.17;;;1.90;;
9801;SDS011;4940;50.900;4.672;2022-12-20T01:35:54;2.90;;;1.60;;
9801;SDS011;4940;50.900;4.672;2022-12-20T01:38:22;2.60;;;1.60;;
9801;SDS011;4940;50.900;4.672;2022-12-20T01:40:51;6.75;;;1.60;;
9801;SDS011;4940;50.900;4.672;2022-12-20T01:43:20;3.95;;;1.80;;
9801;SDS011;4940;50.900;4.672;2022-12-20T01:45:47;1.70;;;1.50;;
9801;SDS011;4940;50.900;4.672;2022-12-20T01:48:15;2.47;;;1.60;;
9801;SDS011;4940;50.900;4.672;2022-12-20T01:50:47;1.80;;;1.67;;
9801;SDS011;4940;50.900;4.672;2022-12-20T01:53:18;3.58;;;1.63;;
9801;SDS011;4940;50.900;4.672;2022-12-20T01:55:48;4.32;;;1.65;;
9801;SDS011;4940;50.900;4.672;2022-12-20T01:58:17;2.40;;;1.75;;
9801;SDS011;4940;50.900;4.672;2022-12-20T02:00:46;4.93;;;2.00;;
9801;SDS011;4940;50.900;4.672;2022-12-20T02:03:14;2.38;;;1.70;;
9801;SDS011;4940;50.900;4.672;2022-12-20T02:05:43;2.75;;;2.13;;
9801;SDS011;4940;50.900;4.672;2022-12-20T02:08:13;4.47;;;1.92;;
9801;SDS011;4940;50.900;4.672;2022-12-20T02:10:46;3.60;;;1.90;;
9801;SDS011;4940;50.900;4.672;2022-12-20T02:13:26;4.75;;;2.10;;
9801;SDS011;4940;50.900;4.672;2022-12-20T02:16:00;3.38;;;2.28;;
9801;SDS011;4940;50.900;4.672;2022-12-20T02:18:30;2.70;;;1.70;;
9801;SDS011;4940;50.900;4.672;2022-12-20T02:21:11;4.72;;;1.98;;
9801;SDS011;4940;50.900;4.672;2022-12-20T02:26:55;3.42;;;1.90;;
9801;SDS011;4940;50.900;4.672;2022-12-20T02:29:57;2.75;;;1.80;;
9801;SDS011;4940;50.900;4.672;2022-12-20T02:32:35;2.70;;;1.60;;
9801;SDS011;4940;50.900;4.672;2022-12-20T02:35:05;2.25;;;1.70;;
9801;SDS011;4940;50.900;4.672;2022-12-20T02:37:34;3.63;;;2.28;;
9801;SDS011;4940;50.900;4.672;2022-12-20T02:40:02;3.55;;;1.60;;
9801;SDS011;4940;50.900;4.672;2022-12-20T02:42:31;3.58;;;1.55;;
9801;SDS011;4940;50.900;4.672;2022-12-20T02:45:01;2.25;;;1.67;;
9801;SDS011;4940;50.900;4.672;2022-12-20T02:47:47;3.00;;;1.98;;
9801;SDS011;4940;50.900;4.672;2022-12-20T02:50:18;2.22;;;1.70;;
9801;SDS011;4940;50.900;4.672;2022-12-20T02:52:48;2.08;;;1.58;;
9801;SDS011;4940;50.900;4.672;2022-12-20T02:55:17;3.42;;;1.70;;
9801;SDS011;4940;50.900;4.672;2022-12-20T02:57:48;3.00;;;1.80;;
9801;SDS011;4940;50.900;4.672;2022-12-20T03:00:18;2.47;;;1.40;;
9801;SDS011;4940;50.900;4.672;2022-12-20T03:02:46;2.30;;;1.63;;
9801;SDS011;4940;50.900;4.672;2022-12-20T03:05:33;2.95;;;1.70;;
9801;SDS011;4940;50.900;4.672;2022-12-20T03:08:10;2.88;;;1.98;;
9801;SDS011;4940;50.900;4.672;2022-12-20T03:10:41;4.40;;;1.50;;
9801;SDS011;4940;50.900;4.672;2022-12-20T03:13:11;1.92;;;1.48;;
9801;SDS011;4940;50.900;4.672;2022-12-20T03:15:40;1.55;;;1.42;;
9801;SDS011;4940;50.900;4.672;2022-12-20T03:18:07;3.55;;;1.90;;
9801;SDS011;4940;50.900;4.672;2022-12-20T03:20:34;2.95;;;1.77;;
9801;SDS011;4940;50.900;4.672;2022-12-20T03:23:02;2.65;;;1.77;;
9801;SDS011;4940;50.900;4.672;2022-12-20T03:25:29;3.00;;;1.95;;
9801;SDS011;4940;50.900;4.672;2022-12-20T03:27:57;4.78;;;1.90;;
9801;SDS011;4940;50.900;4.672;2022-12-20T03:30:25;2.35;;;1.67;;
9801;SDS011;4940;50.900;4.672;2022-12-20T03:32:54;2.20;;;1.60;;
9801;SDS011;4940;50.900;4.672;2022-12-20T03:35:21;1.63;;;1.52;;
9801;SDS011;4940;50.900;4.672;2022-12-20T03:37:48;2.60;;;1.30;;
9801;SDS011;4940;50.900;4.672;2022-12-20T03:40:16;3.38;;;1.75;;
9801;SDS011;4940;50.900;4.672;2022-12-20T03:42:43;3.35;;;1.45;;
9801;SDS011;4940;50.900;4.672;2022-12-20T03:45:13;1.67;;;1.55;;
9801;SDS011;4940;50.900;4.672;2022-12-20T03:47:50;3.22;;;1.60;;
9801;SDS011;4940;50.900;4.672;2022-12-20T03:50:19;2.60;;;1.90;;
9801;SDS011;4940;50.900;4.672;2022-12-20T03:52:46;1.55;;;1.30;;
9801;SDS011;4940;50.900;4.672;2022-12-20T03:55:14;3.78;;;1.73;;
9801;SDS011;4940;50.900;4.672;2022-12-20T03:57:42;2.75;;;1.48;;
9801;SDS011;4940;50.900;4.672;2022-12-20T04:00:09;2.55;;;1.90;;
9801;SDS011;4940;50.900;4.672;2022-12-20T04:02:38;3.28;;;1.50;;
9801;SDS011;4940;50.900;4.672;2022-12-20T04:05:08;3.53;;;1.88;;
9801;SDS011;4940;50.900;4.672;2022-12-20T04:07:38;2.75;;;1.60;;
9801;SDS011;4940;50.900;4.672;2022-12-20T04:10:05;2.13;;;1.55;;
9801;SDS011;4940;50.900;4.672;2022-12-20T04:12:34;2.83;;;1.98;;
9801;SDS011;4940;50.900;4.672;2022-12-20T04:15:04;4.85;;;1.38;;
9801;SDS011;4940;50.900;4.672;2022-12-20T04:17:32;2.38;;;1.70;;
9801;SDS011;4940;50.900;4.672;2022-12-20T04:20:00;2.90;;;1.70;;
9801;SDS011;4940;50.900;4.672;2022-12-20T04:22:46;4.88;;;2.20;;
9801;SDS011;4940;50.900;4.672;2022-12-20T04:25:21;2.10;;;1.90;;
9801;SDS011;4940;50.900;4.672;2022-12-20T04:27:52;3.50;;;1.77;;
9801;SDS011;4940;50.900;4.672;2022-12-20T04:30:19;2.55;;;1.80;;
9801;SDS011;4940;50.900;4.672;2022-12-20T04:32:47;2.10;;;1.55;;
9801;SDS011;4940;50.900;4.672;2022-12-20T04:35:18;4.15;;;1.90;;
9801;SDS011;4940;50.900;4.672;2022-12-20T04:37:47;2.30;;;1.77;;
9801;SDS011;4940;50.900;4.672;2022-12-20T04:40:15;2.80;;;1.55;;
9801;SDS011;4940;50.900;4.672;2022-12-20T04:42:45;3.38;;;2.15;;
9801;SDS011;4940;50.900;4.672;2022-12-20T04:45:12;2.33;;;1.80;;
9801;SDS011;4940;50.900;4.672;2022-12-20T04:47:42;4.18;;;2.08;;
9801;SDS011;4940;50.900;4.672;2022-12-20T04:50:11;3.47;;;1.90;;
9801;SDS011;4940;50.900;4.672;2022-12-20T04:52:39;5.20;;;2.00;;
9801;SDS011;4940;50.900;4.672;2022-12-20T04:55:40;4.47;;;1.63;;
9801;SDS011;4940;50.900;4.672;2022-12-20T04:58:07;4.22;;;1.60;;
9801;SDS011;4940;50.900;4.672;2022-12-20T05:00:37;2.33;;;1.65;;
9801;SDS011;4940;50.900;4.672;2022-12-20T05:03:05;2.22;;;1.60;;
9801;SDS011;4940;50.900;4.672;2022-12-20T05:05:33;5.00;;;1.75;;
9801;SDS011;4940;50.900;4.672;2022-12-20T05:08:02;2.33;;;1.55;;
9801;SDS011;4940;50.900;4.672;2022-12-20T05:10:30;2.13;;;1.50;;
9801;SDS011;4940;50.900;4.672;2022-12-20T05:13:01;1.90;;;1.60;;
9801;SDS011;4940;50.900;4.672;2022-12-20T05:15:31;4.00;;;1.67;;
9801;SDS011;4940;50.900;4.672;2022-12-20T05:18:00;2.15;;;1.60;;
9801;SDS011;4940;50.900;4.672;2022-12-20T05:20:28;3.40;;;1.50;;
9801;SDS011;4940;50.900;4.672;2022-12-20T05:22:56;2.13;;;1.73;;
9801;SDS011;4940;50.900;4.672;2022-12-20T05:25:42;2.10;;;1.63;;
9801;SDS011;4940;50.900;4.672;2022-12-20T05:28:30;3.45;;;1.60;;
9801;SDS011;4940;50.900;4.672;2022-12-20T05:30:59;2.25;;;1.50;;
9801;SDS011;4940;50.900;4.672;2022-12-20T05:33:27;2.38;;;1.50;;
9801;SDS011;4940;50.900;4.672;2022-12-20T05:35:55;1.52;;;1.20;;
9801;SDS011;4940;50.900;4.672;2022-12-20T05:38:23;3.08;;;1.30;;
9801;SDS011;4940;50.900;4.672;2022-12-20T05:40:53;3.30;;;1.50;;
9801;SDS011;4940;50.900;4.672;2022-12-20T05:43:28;2.13;;;1.23;;
9801;SDS011;4940;50.900;4.672;2022-12-20T05:45:57;2.45;;;1.20;;
9801;SDS011;4940;50.900;4.672;2022-12-20T05:48:24;3.00;;;1.23;;
9801;SDS011;4940;50.900;4.672;2022-12-20T05:50:51;1.70;;;1.23;;
9801;SDS011;4940;50.900;4.672;2022-12-20T05:53:19;1.98;;;1.23;;
9801;SDS011;4940;50.900;4.672;2022-12-20T05:55:48;1.20;;;1.10;;
9801;SDS011;4940;50.900;4.672;2022-12-20T05:58:19;2.00;;;1.38;;
9801;SDS011;4940;50.900;4.672;2022-12-20T06:00:47;3.15;;;1.27;;
9801;SDS011;4940;50.900;4.672;2022-12-20T06:03:16;2.50;;;1.67;;
9801;SDS011;4940;50.900;4.672;2022-12-20T06:05:45;2.33;;;1.52;;
9801;SDS011;4940;50.900;4.672;2022-12-20T06:08:13;2.88;;;1.40;;
9801;SDS011;4940;50.900;4.672;2022-12-20T06:10:40;1.50;;;1.20;;
9801;SDS011;4940;50.900;4.672;2022-12-20T06:13:08;1.88;;;1.20;;
9801;SDS011;4940;50.900;4.672;2022-12-20T06:15:36;4.78;;;1.77;;
9801;SDS011;4940;50.900;4.672;2022-12-20T06:18:04;3.80;;;1.45;;
9801;SDS011;4940;50.900;4.672;2022-12-20T06:20:36;3.85;;;1.35;;
9801;SDS011;4940;50.900;4.672;2022-12-20T06:23:09;2.25;;;1.42;;
9801;SDS011;4940;50.900;4.672;2022-12-20T06:25:39;2.90;;;1.20;;
9801;SDS011;4940;50.900;4.672;2022-12-20T06:28:08;1.63;;;1.30;;
9801;SDS011;4940;50.900;4.672;2022-12-20T06:30:38;1.85;;;1.23;;
9801;SDS011;4940;50.900;4.672;2022-12-20T06:33:05;2.55;;;1.30;;
9801;SDS011;4940;50.900;4.672;2022-12-20T06:35:37;1.15;;;1.00;;
9801;SDS011;4940;50.900;4.672;2022-12-20T06:38:22;2.83;;;1.10;;
9801;SDS011;4940;50.900;4.672;2022-12-20T06:40:51;2.35;;;1.30;;
9801;SDS011;4940;50.900;4.672;2022-12-20T06:46:23;1.38;;;1.17;;
9801;SDS011;4940;50.900;4.672;2022-12-20T06:49:13;2.78;;;1.33;;
9801;SDS011;4940;50.900;4.672;2022-12-20T06:52:28;2.00;;;1.40;;
9801;SDS011;4940;50.900;4.672;2022-12-20T06:54:55;2.53;;;1.38;;
9801;SDS011;4940;50.900;4.672;2022-12-20T06:57:23;4.47;;;1.38;;
9801;SDS011;4940;50.900;4.672;2022-12-20T06:59:50;2.15;;;1.23;;
9801;SDS011;4940;50.900;4.672;2022-12-20T07:02:25;5.57;;;1.23;;
9801;SDS011;4940;50.900;4.672;2022-12-20T07:05:37;1.35;;;1.13;;
9801;SDS011;4940;50.900;4.672;2022-12-20T07:08:24;1.35;;;1.17;;
9801;SDS011;4940;50.900;4.672;2022-12-20T07:13:41;2.30;;;1.10;;
9801;SDS011;4940;50.900;4.672;2022-12-20T07:16:17;1.25;;;1.15;;
9801;SDS011;4940;50.900;4.672;2022-12-20T07:18:59;2.45;;;1.20;;
9801;SDS011;4940;50.900;4.672;2022-12-20T07:21:39;2.30;;;1.35;;
9801;SDS011;4940;50.900;4.672;2022-12-20T07:24:23;1.52;;;1.10;;
9801;SDS011;4940;50.900;4.672;2022-12-20T07:27:03;3.80;;;1.27;;
9801;SDS011;4940;50.900;4.672;2022-12-20T07:29:35;3.72;;;1.20;;
9801;SDS011;4940;50.900;4.672;2022-12-20T07:32:04;1.63;;;1.23;;
9801;SDS011;4940;50.900;4.672;2022-12-20T07:34:35;3.05;;;1.30;;
9801;SDS011;4940;50.900;4.672;2022-12-20T07:37:09;4.90;;;1.55;;
9801;SDS011;4940;50.900;4.672;2022-12-20T07:39:42;3.78;;;1.30;;
9801;SDS011;4940;50.900;4.672;2022-12-20T07:42:18;2.58;;;1.27;;
9801;SDS011;4940;50.900;4.672;2022-12-20T07:44:50;2.55;;;1.35;;
9801;SDS011;4940;50.900;4.672;2022-12-20T07:47:23;2.75;;;1.10;;
9801;SDS011;4940;50.900;4.672;2022-12-20T07:49:54;3.40;;;1.60;;
9801;SDS011;4940;50.900;4.672;2022-12-20T07:52:28;2.95;;;1.35;;
9801;SDS011;4940;50.900;4.672;2022-12-20T07:57:43;3.72;;;1.42;;
9801;SDS011;4940;50.900;4.672;2022-12-20T08:00:12;5.47;;;1.55;;
9801;SDS011;4940;50.900;4.672;2022-12-20T08:02:41;7.65;;;2.03;;
9801;SDS011;4940;50.900;4.672;2022-12-20T08:05:10;2.10;;;1.63;;
9801;SDS011;4940;50.900;4.672;2022-12-20T08:07:38;3.53;;;1.50;;
9801;SDS011;4940;50.900;4.672;2022-12-20T08:10:07;5.70;;;1.70;;
9801;SDS011;4940;50.900;4.672;2022-12-20T08:12:35;2.35;;;1.52;;
9801;SDS011;4940;50.900;4.672;2022-12-20T08:15:06;2.47;;;1.80;;
9801;SDS011;4940;50.900;4.672;2022-12-20T08:17:33;6.00;;;1.75;;
9801;SDS011;4940;50.900;4.672;2022-12-20T08:20:01;2.47;;;1.88;;
9801;SDS011;4940;50.900;4.672;2022-12-20T08:22:30;3.67;;;1.98;;
9801;SDS011;4940;50.900;4.672;2022-12-20T08:24:57;2.00;;;1.80;;
9801;SDS011;4940;50.900;4.672;2022-12-20T08:27:25;2.20;;;1.60;;
9801;SDS011;4940;50.900;4.672;2022-12-20T08:29:52;4.85;;;1.85;;
9801;SDS011;4940;50.900;4.672;2022-12-20T08:32:21;2.92;;;1.98;;
9801;SDS011;4940;50.900;4.672;2022-12-20T08:34:49;6.32;;;2.10;;
9801;SDS011;4940;50.900;4.672;2022-12-20T08:37:16;1.92;;;1.70;;
9801;SDS011;4940;50.900;4.672;2022-12-20T08:39:44;5.68;;;2.10;;
9801;SDS011;4940;50.900;4.672;2022-12-20T08:42:11;3.47;;;1.65;;
9801;SDS011;4940;50.900;4.672;2022-12-20T08:44:39;3.22;;;1.80;;
9801;SDS011;4940;50.900;4.672;2022-12-20T08:47:08;2.10;;;1.88;;
9801;SDS011;4940;50.900;4.672;2022-12-20T08:49:37;2.13;;;1.80;;
9801;SDS011;4940;50.900;4.672;2022-12-20T08:52:05;4.40;;;1.90;;
9801;SDS011;4940;50.900;4.672;2022-12-20T08:54:32;3.17;;;1.80;;
9801;SDS011;4940;50.900;4.672;2022-12-20T08:56:59;3.83;;;2.28;;
9801;SDS011;4940;50.900;4.672;2022-12-20T08:59:27;2.58;;;2.15;;
9801;SDS011;4940;50.900;4.672;2022-12-20T09:01:55;4.13;;;2.20;;
9801;SDS011;4940;50.900;4.672;2022-12-20T09:04:23;2.53;;;2.20;;
9801;SDS011;4940;50.900;4.672;2022-12-20T09:06:53;3.30;;;2.13;;
9801;SDS011;4940;50.900;4.672;2022-12-20T09:09:20;3.15;;;2.10;;
9801;SDS011;4940;50.900;4.672;2022-12-20T09:11:47;3.08;;;2.10;;
9801;SDS011;4940;50.900;4.672;2022-12-20T09:14:16;3.67;;;2.28;;
9801;SDS011;4940;50.900;4.672;2022-12-20T09:16:45;2.42;;;2.22;;
9801;SDS011;4940;50.900;4.672;2022-12-20T09:19:13;5.35;;;2.40;;
9801;SDS011;4940;50.900;4.672;2022-12-20T09:21:41;5.43;;;1.95;;
9801;SDS011;4940;50.900;4.672;2022-12-20T09:24:10;2.28;;;1.92;;
9801;SDS011;4940;50.900;4.672;2022-12-20T09:26:38;3.28;;;1.90;;
9801;SDS011;4940;50.900;4.672;2022-12-20T09:29:06;2.70;;;1.90;;
9801;SDS011;4940;50.900;4.672;2022-12-20T09:31:33;4.45;;;2.40;;
9801;SDS011;4940;50.900;4.672;2022-12-20T09:34:02;2.67;;;2.47;;
9801;SDS011;4940;50.900;4.672;2022-12-20T09:36:30;3.53;;;2.75;;
9801;SDS011;4940;50.900;4.672;2022-12-20T09:38:57;3.17;;;2.58;;
9801;SDS011;4940;50.900;4.672;2022-12-20T09:41:47;4.28;;;2.40;;
9801;SDS011;4940;50.900;4.672;2022-12-20T09:44:21;5.95;;;2.83;;
9801;SDS011;4940;50.900;4.672;2022-12-20T09:46:53;4.18;;;2.50;;
9801;SDS011;4940;50.900;4.672;2022-12-20T09:49:32;4.97;;;2.00;;
9801;SDS011;4940;50.900;4.672;2022-12-20T09:52:16;2.65;;;2.30;;
9801;SDS011;4940;50.900;4.672;2022-12-20T09:54:52;4.65;;;2.05;;
9801;SDS011;4940;50.900;4.672;2022-12-20T09:57:29;4.05;;;2.25;;
9801;SDS011;4940;50.900;4.672;2022-12-20T10:00:12;3.30;;;2.10;;
9801;SDS011;4940;50.900;4.672;2022-12-20T10:02:40;4.78;;;2.30;;
9801;SDS011;4940;50.900;4.672;2022-12-20T10:05:11;2.95;;;2.20;;
9801;SDS011;4940;50.900;4.672;2022-12-20T10:07:41;4.13;;;2.00;;
9801;SDS011;4940;50.900;4.672;2022-12-20T10:10:34;3.90;;;2.67;;
9801;SDS011;4940;50.900;4.672;2022-12-20T10:13:17;5.30;;;2.53;;
9801;SDS011;4940;50.900;4.672;2022-12-20T10:15:56;7.15;;;2.75;;
9801;SDS011;4940;50.900;4.672;2022-12-20T10:18:37;2.80;;;2.50;;
9801;SDS011;4940;50.900;4.672;2022-12-20T10:21:15;6.32;;;2.53;;
9801;SDS011;4940;50.900;4.672;2022-12-20T10:23:50;2.72;;;2.30;;
9801;SDS011;4940;50.900;4.672;2022-12-20T10:26:25;4.72;;;2.50;;
9801;SDS011;4940;50.900;4.672;2022-12-20T10:28:54;2.40;;;2.20;;
9801;SDS011;4940;50.900;4.672;2022-12-20T10:31:21;4.03;;;2.30;;
9801;SDS011;4940;50.900;4.672;2022-12-20T10:33:49;4.53;;;2.55;;
9801;SDS011;4940;50.900;4.672;2022-12-20T10:36:17;4.78;;;2.38;;
9801;SDS011;4940;50.900;4.672;2022-12-20T10:38:48;3.50;;;2.20;;
9801;SDS011;4940;50.900;4.672;2022-12-20T10:41:17;3.47;;;2.30;;
9801;SDS011;4940;50.900;4.672;2022-12-20T10:43:46;4.35;;;2.63;;
9801;SDS011;4940;50.900;4.672;2022-12-20T10:46:17;3.00;;;2.35;;
9801;SDS011;4940;50.900;4.672;2022-12-20T10:48:45;5.07;;;2.80;;
9801;SDS011;4940;50.900;4.672;2022-12-20T10:51:14;3.45;;;2.50;;
9801;SDS011;4940;50.900;4.672;2022-12-20T10:53:50;5.57;;;2.58;;
9801;SDS011;4940;50.900;4.672;2022-12-20T10:56:20;4.10;;;2.80;;
9801;SDS011;4940;50.900;4.672;2022-12-20T10:58:52;6.40;;;2.50;;
9801;SDS011;4940;50.900;4.672;2022-12-20T11:01:24;2.85;;;2.40;;
9801;SDS011;4940;50.900;4.672;2022-12-20T11:03:58;5.55;;;2.45;;
9801;SDS011;4940;50.900;4.672;2022-12-20T11:06:28;5.72;;;2.92;;
9801;SDS011;4940;50.900;4.672;2022-12-20T11:09:20;5.82;;;2.95;;
9801;SDS011;4940;50.900;4.672;2022-12-20T11:11:57;2.90;;;2.65;;
9801;SDS011;4940;50.900;4.672;2022-12-20T11:14:29;5.38;;;2.85;;
9801;SDS011;4940;50.900;4.672;2022-12-20T11:16:59;2.85;;;2.60;;
9801;SDS011;4940;50.900;4.672;2022-12-20T11:19:42;5.38;;;2.85;;
9801;SDS011;4940;50.900;4.672;2022-12-20T11:22:23;4.22;;;2.75;;
9801;SDS011;4940;50.900;4.672;2022-12-20T11:25:01;4.10;;;2.85;;
9801;SDS011;4940;50.900;4.672;2022-12-20T11:27:46;4.20;;;2.90;;
9801;SDS011;4940;50.900;4.672;2022-12-20T11:30:19;3.60;;;2.90;;
9801;SDS011;4940;50.900;4.672;2022-12-20T11:33:07;4.32;;;2.88;;
9801;SDS011;4940;50.900;4.672;2022-12-20T11:35:44;4.55;;;3.13;;
9801;SDS011;4940;50.900;4.672;2022-12-20T11:38:22;4.57;;;3.13;;
9801;SDS011;4940;50.900;4.672;2022-12-20T11:41:06;5.70;;;3.35;;
9801;SDS011;4940;50.900;4.672;2022-12-20T11:43:47;4.68;;;3.28;;
9801;SDS011;4940;50.900;4.672;2022-12-20T11:46:27;4.13;;;3.40;;
9801;SDS011;4940;50.900;4.672;2022-12-20T11:49:08;5.25;;;3.70;;
9801;SDS011;4940;50.900;4.672;2022-12-20T11:51:51;4.82;;;3.40;;
9801;SDS011;4940;50.900;4.672;2022-12-20T11:54:28;5.30;;;2.65;;
9801;SDS011;4940;50.900;4.672;2022-12-20T11:56:58;8.82;;;3.55;;
9801;SDS011;4940;50.900;4.672;2022-12-20T12:00:10;5.35;;;3.20;;
9801;SDS011;4940;50.900;4.672;2022-12-20T12:02:41;5.25;;;3.38;;
9801;SDS011;4940;50.900;4.672;2022-12-20T12:05:15;5.80;;;3.13;;
9801;SDS011;4940;50.900;4.672;2022-12-20T12:07:45;4.40;;;3.33;;
9801;SDS011;4940;50.900;4.672;2022-12-20T12:10:18;3.72;;;3.25;;
9801;SDS011;4940;50.900;4.672;2022-12-20T12:12:50;6.32;;;3.33;;
9801;SDS011;4940;50.900;4.672;2022-12-20T12:15:21;4.25;;;2.70;;
9801;SDS011;4940;50.900;4.672;2022-12-20T12:17:56;3.65;;;3.30;;
9801;SDS011;4940;50.900;4.672;2022-12-20T12:20:30;7.60;;;3.60;;
9801;SDS011;4940;50.900;4.672;2022-12-20T12:23:04;4.40;;;3.20;;
9801;SDS011;4940;50.900;4.672;2022-12-20T12:25:38;4.72;;;3.60;;
9801;SDS011;4940;50.900;4.672;2022-12-20T12:28:05;3.40;;;3.10;;
9801;SDS011;4940;50.900;4.672;2022-12-20T12:30:35;4.35;;;3.53;;
9801;SDS011;4940;50.900;4.672;2022-12-20T12:33:05;10.02;;;3.85;;
9801;SDS011;4940;50.900;4.672;2022-12-20T12:35:46;4.57;;;3.22;;
9801;SDS011;4940;50.900;4.672;2022-12-20T12:41:48;3.70;;;3.30;;
9801;SDS011;4940;50.900;4.672;2022-12-20T12:44:40;4.07;;;3.30;;
9801;SDS011;4940;50.900;4.672;2022-12-20T12:47:15;3.83;;;3.40;;
9801;SDS011;4940;50.900;4.672;2022-12-20T12:49:46;4.63;;;3.85;;
9801;SDS011;4940;50.900;4.672;2022-12-20T12:58:12;7.32;;;3.90;;
9801;SDS011;4940;50.900;4.672;2022-12-20T13:00:49;5.60;;;3.97;;
9801;SDS011;4940;50.900;4.672;2022-12-20T13:09:38;8.90;;;3.92;;
9801;SDS011;4940;50.900;4.672;2022-12-20T13:18:21;3.90;;;3.45;;
9801;SDS011;4940;50.900;4.672;2022-12-20T13:27:17;11.43;;;4.68;;
9801;SDS011;4940;50.900;4.672;2022-12-20T13:29:56;8.30;;;4.30;;
9801;SDS011;4940;50.900;4.672;2022-12-20T13:35:58;6.05;;;4.57;;
9801;SDS011;4940;50.900;4.672;2022-12-20T13:38:48;5.40;;;4.05;;
9801;SDS011;4940;50.900;4.672;2022-12-20T13:41:30;5.03;;;4.53;;
9801;SDS011;4940;50.900;4.672;2022-12-20T13:44:09;4.88;;;4.45;;
9801;SDS011;4940;50.900;4.672;2022-12-20T13:46:56;4.88;;;4.05;;
9801;SDS011;4940;50.900;4.672;2022-12-20T13:49:28;8.05;;;4.53;;
9801;SDS011;4940;50.900;4.672;2022-12-20T13:54:53;7.55;;;4.28;;
9801;SDS011;4940;50.900;4.672;2022-12-20T13:57:25;4.95;;;4.05;;
9801;SDS011;4940;50.900;4.672;2022-12-20T13:59:57;6.05;;;4.00;;
9801;SDS011;4940;50.900;4.672;2022-12-20T14:02:28;5.88;;;4.07;;
9801;SDS011;4940;50.900;4.672;2022-12-20T14:04:59;4.75;;;4.22;;
9801;SDS011;4940;50.900;4.672;2022-12-20T14:07:29;6.43;;;4.30;;
9801;SDS011;4940;50.900;4.672;2022-12-20T14:09:58;9.40;;;4.15;;
9801;SDS011;4940;50.900;4.672;2022-12-20T14:12:27;9.43;;;4.47;;
9801;SDS011;4940;50.900;4.672;2022-12-20T14:14:57;4.68;;;3.97;;
9801;SDS011;4940;50.900;4.672;2022-12-20T14:17:26;4.85;;;4.35;;
9801;SDS011;4940;50.900;4.672;2022-12-20T14:33:46;5.95;;;3.90;;
9801;SDS011;4940;50.900;4.672;2022-12-20T14:36:16;6.03;;;3.75;;
9801;SDS011;4940;50.900;4.672;2022-12-20T14:38:46;6.00;;;4.55;;
9801;SDS011;4940;50.900;4.672;2022-12-20T14:41:28;4.60;;;4.18;;
9801;SDS011;4940;50.900;4.672;2022-12-20T14:43:57;4.88;;;4.38;;
9801;SDS011;4940;50.900;4.672;2022-12-20T14:46:26;6.13;;;4.80;;
9801;SDS011;4940;50.900;4.672;2022-12-20T14:51:47;8.38;;;4.57;;
9801;SDS011;4940;50.900;4.672;2022-12-20T14:54:16;7.65;;;4.57;;
9801;SDS011;4940;50.900;4.672;2022-12-20T14:56:45;10.50;;;4.78;;
9801;SDS011;4940;50.900;4.672;2022-12-20T14:59:15;10.82;;;4.53;;
9801;SDS011;4940;50.900;4.672;2022-12-20T15:01:48;6.18;;;3.92;;
9801;SDS011;4940;50.900;4.672;2022-12-20T15:04:22;5.60;;;4.30;;
9801;SDS011;4940;50.900;4.672;2022-12-20T15:06:50;6.93;;;4.60;;
9801;SDS011;4940;50.900;4.672;2022-12-20T15:09:18;6.95;;;4.45;;
9801;SDS011;4940;50.900;4.672;2022-12-20T15:11:46;6.55;;;3.95;;
9801;SDS011;4940;50.900;4.672;2022-12-20T15:14:20;5.95;;;3.92;;
9801;SDS011;4940;50.900;4.672;2022-12-20T15:16:53;7.97;;;4.32;;
9801;SDS011;4940;50.900;4.672;2022-12-20T15:19:22;7.63;;;4.43;;
9801;SDS011;4940;50.900;4.672;2022-12-20T15:21:49;5.88;;;4.00;;
9801;SDS011;4940;50.900;4.672;2022-12-20T15:24:18;5.68;;;4.38;;
9801;SDS011;4940;50.900;4.672;2022-12-20T15:26:50;6.10;;;4.85;;
9801;SDS011;4940;50.900;4.672;2022-12-20T15:29:17;6.93;;;4.78;;
9801;SDS011;4940;50.900;4.672;2022-12-20T15:31:46;7.53;;;4.65;;
9801;SDS011;4940;50.900;4.672;2022-12-20T15:34:14;5.15;;;4.15;;
9801;SDS011;4940;50.900;4.672;2022-12-20T15:36:46;5.18;;;4.40;;
9801;SDS011;4940;50.900;4.672;2022-12-20T15:39:14;7.55;;;4.40;;
9801;SDS011;4940;50.900;4.672;2022-12-20T15:41:43;7.15;;;4.32;;
9801;SDS011;4940;50.900;4.672;2022-12-20T15:44:13;7.20;;;4.80;;
9801;SDS011;4940;50.900;4.672;2022-12-20T15:46:42;6.97;;;4.95;;
9801;SDS011;4940;50.900;4.672;2022-12-20T15:49:12;8.07;;;5.28;;
9801;SDS011;4940;50.900;4.672;2022-12-20T15:51:40;6.63;;;4.65;;
9801;SDS011;4940;50.900;4.672;2022-12-20T15:54:14;8.73;;;5.00;;
9801;SDS011;4940;50.900;4.672;2022-12-20T15:56:47;5.28;;;4.10;;
9801;SDS011;4940;50.900;4.672;2022-12-20T15:59:14;12.88;;;4.72;;
9801;SDS011;4940;50.900;4.672;2022-12-20T16:01:42;6.07;;;4.20;;
9801;SDS011;4940;50.900;4.672;2022-12-20T16:04:11;6.43;;;4.68;;
9801;SDS011;4940;50.900;4.672;2022-12-20T16:06:40;10.27;;;4.97;;
9801;SDS011;4940;50.900;4.672;2022-12-20T16:09:08;8.35;;;4.63;;
9801;SDS011;4940;50.900;4.672;2022-12-20T16:11:37;6.85;;;4.35;;
9801;SDS011;4940;50.900;4.672;2022-12-20T16:14:05;5.40;;;4.05;;
9801;SDS011;4940;50.900;4.672;2022-12-20T16:16:34;7.25;;;4.10;;
9801;SDS011;4940;50.900;4.672;2022-12-20T16:19:02;6.43;;;4.40;;
9801;SDS011;4940;50.900;4.672;2022-12-20T16:21:30;6.47;;;4.32;;
9801;SDS011;4940;50.900;4.672;2022-12-20T16:23:58;7.75;;;4.43;;
9801;SDS011;4940;50.900;4.672;2022-12-20T16:26:26;6.82;;;4.38;;
9801;SDS011;4940;50.900;4.672;2022-12-20T16:28:55;8.93;;;5.05;;
9801;SDS011;4940;50.900;4.672;2022-12-20T16:31:23;9.82;;;4.95;;
9801;SDS011;4940;50.900;4.672;2022-12-20T16:33:53;8.18;;;4.88;;
9801;SDS011;4940;50.900;4.672;2022-12-20T16:36:21;9.07;;;5.00;;
9801;SDS011;4940;50.900;4.672;2022-12-20T16:38:49;7.28;;;4.78;;
9801;SDS011;4940;50.900;4.672;2022-12-20T16:41:18;6.20;;;4.47;;
9801;SDS011;4940;50.900;4.672;2022-12-20T16:43:47;7.90;;;4.53;;
9801;SDS011;4940;50.900;4.672;2022-12-20T16:46:17;7.25;;;5.35;;